Time;durP1;ratioP1;P1;durP2;ratioP2;P2;SDS_P1;SDS_P2;PMS_P1;PMS_P2;Temp;Humidity;BMP_temperature;BMP_pressure;BME280_temperature;BME280_humidity;BME280_pressure;Samples;Min_cycle;Max_cycle;Signal;HPM_P1;HPM_P2
2021/10/03 00:01:27;;;;;;;2.43;1.33;;;;;17.00;97100.00;;;;5095981;28;20653;-59
2021/10/03 00:03:53;;;;;;;1.30;1.20;;;;;17.00;97099.00;;;;5095626;28;20230;-59
2021/10/03 00:06:22;;;;;;;1.53;1.30;;;;;16.90;97095.00;;;;5095561;28;20285;-59
2021/10/03 00:08:52;;;;;;;1.43;1.33;;;;;16.90;97092.00;;;;5094581;28;20614;-59
2021/10/03 00:11:20;;;;;;;1.90;1.40;;;;;16.90;97094.00;;;;5095798;28;20221;-59
2021/10/03 00:13:47;;;;;;;1.47;1.37;;;;;16.90;97095.00;;;;5095455;28;20200;-59
2021/10/03 00:16:14;;;;;;;1.47;1.37;;;;;17.00;97097.00;;;;5095429;28;20188;-59
2021/10/03 00:18:41;;;;;;;2.07;1.67;;;;;16.90;97093.00;;;;5095439;28;20553;-58
2021/10/03 00:21:10;;;;;;;1.83;1.40;;;;;17.00;97094.00;;;;5095317;28;20709;-59
2021/10/03 00:23:39;;;;;;;1.40;1.30;;;;;16.90;97091.00;;;;5095164;28;20223;-59
2021/10/03 00:26:06;;;;;;;1.60;1.50;;;;;17.00;97073.00;;;;5095453;28;20210;-59
2021/10/03 00:28:33;;;;;;;1.30;1.23;;;;;16.90;97074.00;;;;5095251;28;20595;-59
2021/10/03 00:31:00;;;;;;;1.50;1.37;;;;;16.90;97075.00;;;;5095411;28;20222;-59
2021/10/03 00:33:27;;;;;;;1.47;1.37;;;;;16.90;97073.00;;;;5093851;28;20697;-59
2021/10/03 00:35:53;;;;;;;2.10;1.50;;;;;16.90;97071.00;;;;5095021;28;20176;-59
2021/10/03 00:38:20;;;;;;;1.60;1.50;;;;;16.90;97091.00;;;;5095579;28;20188;-59
2021/10/03 00:40:47;;;;;;;1.40;1.30;;;;;16.90;97073.00;;;;5095210;28;20196;-59
2021/10/03 00:43:14;;;;;;;1.60;1.50;;;;;16.90;97077.00;;;;5094881;28;20200;-57
2021/10/03 00:45:41;;;;;;;1.73;1.60;;;;;16.90;97076.00;;;;5095329;28;20343;-59
2021/10/03 00:48:08;;;;;;;1.40;1.30;;;;;16.90;97071.00;;;;5094878;28;20273;-59
2021/10/03 00:50:39;;;;;;;1.43;1.33;;;;;16.90;97076.00;;;;5094804;28;20259;-59
2021/10/03 00:53:06;;;;;;;1.37;1.27;;;;;16.90;97072.00;;;;5095129;28;20202;-59
2021/10/03 00:55:33;;;;;;;1.40;1.30;;;;;16.90;97069.00;;;;5094916;28;20184;-58
2021/10/03 00:58:00;;;;;;;1.83;1.40;;;;;16.90;97078.00;;;;5094766;28;20184;-59
2021/10/03 01:00:30;;;;;;;1.57;1.47;;;;;16.90;97072.00;;;;5094625;28;20237;-59
2021/10/03 01:02:58;;;;;;;1.37;1.27;;;;;16.90;97076.00;;;;5094470;28;20196;-59
2021/10/03 01:05:25;;;;;;;1.43;1.33;;;;;16.90;97073.00;;;;5094423;28;20188;-59
2021/10/03 01:07:52;;;;;;;1.53;1.43;;;;;16.90;97061.00;;;;5094456;28;20588;-59
2021/10/03 01:10:23;;;;;;;1.40;1.30;;;;;16.90;97058.00;;;;5094680;28;20245;-59
2021/10/03 01:12:57;;;;;;;1.50;1.40;;;;;16.90;97055.00;;;;5095431;28;20539;-59
2021/10/03 01:15:26;;;;;;;1.37;1.27;;;;;16.90;97049.00;;;;5095296;28;20236;-59
2021/10/03 01:17:52;;;;;;;1.40;1.30;;;;;16.90;97059.00;;;;5094681;28;20192;-59
2021/10/03 01:20:19;;;;;;;1.60;1.50;;;;;16.90;97060.00;;;;5094252;28;20654;-60
2021/10/03 01:22:46;;;;;;;1.47;1.37;;;;;16.90;97048.00;;;;5094082;28;20202;-59
2021/10/03 01:25:14;;;;;;;1.13;1.13;;;;;16.90;97051.00;;;;5094329;28;20567;-59
2021/10/03 01:27:40;;;;;;;1.63;1.53;;;;;16.90;97046.00;;;;5094118;28;20646;-59
2021/10/03 01:30:15;;;;;;;1.30;1.20;;;;;16.90;97045.00;;;;5094043;28;20222;-59
2021/10/03 01:32:42;;;;;;;1.93;1.50;;;;;16.90;97044.00;;;;5094326;28;20237;-58
2021/10/03 01:35:09;;;;;;;1.60;1.50;;;;;16.90;97046.00;;;;5093885;28;20237;-59
2021/10/03 01:37:37;;;;;;;1.40;1.30;;;;;16.90;97045.00;;;;5094122;28;20182;-59
2021/10/03 01:40:06;;;;;;;1.30;1.20;;;;;16.90;97038.00;;;;5093866;28;20191;-59
2021/10/03 01:42:33;;;;;;;1.40;1.30;;;;;16.90;97040.00;;;;5093831;28;20187;-59
2021/10/03 01:45:00;;;;;;;1.40;1.30;;;;;16.90;97043.00;;;;5093987;28;20581;-59
2021/10/03 01:47:27;;;;;;;1.40;1.30;;;;;16.90;97043.00;;;;5093925;28;20214;-59
2021/10/03 01:49:53;;;;;;;1.43;1.30;;;;;16.90;97042.00;;;;5093730;28;20191;-59
2021/10/03 01:52:19;;;;;;;1.43;1.33;;;;;16.90;97031.00;;;;5093299;28;20195;-59
2021/10/03 01:54:46;;;;;;;1.03;1.03;;;;;16.90;97032.00;;;;5093762;28;20238;-59
2021/10/03 01:57:13;;;;;;;2.03;1.43;;;;;16.90;97025.00;;;;5092636;28;20611;-59
2021/10/03 01:59:40;;;;;;;1.43;1.33;;;;;16.90;97033.00;;;;5093547;28;20241;-59
2021/10/03 02:02:06;;;;;;;1.40;1.30;;;;;16.90;97019.00;;;;5092321;28;20192;-59
2021/10/03 02:04:33;;;;;;;1.60;1.50;;;;;16.90;97015.00;;;;5093445;28;20238;-59
2021/10/03 02:07:01;;;;;;;1.50;1.40;;;;;16.90;97015.00;;;;5093401;28;20210;-59
2021/10/03 02:09:28;;;;;;;1.60;1.50;;;;;16.90;97010.00;;;;5093424;28;20192;-59
2021/10/03 02:11:58;;;;;;;1.40;1.30;;;;;16.90;97007.00;;;;5093338;28;20194;-59
2021/10/03 02:14:30;;;;;;;1.50;1.40;;;;;16.90;97002.00;;;;5094423;28;20196;-59
2021/10/03 02:16:59;;;;;;;1.53;1.43;;;;;16.90;97004.00;;;;5093896;28;20180;-59
2021/10/03 02:19:28;;;;;;;1.40;1.30;;;;;16.90;96996.00;;;;5093286;28;20183;-59
2021/10/03 02:21:55;;;;;;;1.40;1.30;;;;;16.90;97000.00;;;;5093138;28;20184;-59
2021/10/03 02:24:22;;;;;;;1.30;1.20;;;;;16.90;96999.00;;;;5093336;28;20234;-59
2021/10/03 02:26:49;;;;;;;1.60;1.50;;;;;16.90;97000.00;;;;5093371;28;20202;-59
2021/10/03 02:29:16;;;;;;;1.60;1.50;;;;;16.90;97007.00;;;;5093743;28;20186;-59
2021/10/03 02:31:43;;;;;;;1.43;1.33;;;;;16.90;97003.00;;;;5093134;28;20196;-59
2021/10/03 02:34:09;;;;;;;1.50;1.40;;;;;16.90;96997.00;;;;5093102;28;20240;-59
2021/10/03 02:36:36;;;;;;;1.53;1.43;;;;;16.90;96993.00;;;;5093150;28;20195;-59
2021/10/03 02:39:03;;;;;;;1.27;1.20;;;;;16.90;96986.00;;;;5093388;28;20208;-59
2021/10/03 02:41:29;;;;;;;1.40;1.30;;;;;16.90;96989.00;;;;5093110;28;20248;-59
2021/10/03 02:43:58;;;;;;;1.40;1.30;;;;;16.90;96986.00;;;;5092957;28;20244;-59
2021/10/03 02:46:26;;;;;;;1.57;1.20;;;;;16.80;96983.00;;;;5093282;28;20206;-59
2021/10/03 02:48:54;;;;;;;1.30;1.20;;;;;16.80;96983.00;;;;5093016;28;20198;-59
2021/10/03 02:51:27;;;;;;;1.40;1.30;;;;;16.80;96985.00;;;;5092974;28;20187;-59
2021/10/03 02:53:54;;;;;;;1.40;1.30;;;;;16.80;96977.00;;;;5092992;28;20214;-59
2021/10/03 02:56:24;;;;;;;1.20;1.20;;;;;16.80;96972.00;;;;5093221;28;20244;-59
2021/10/03 02:58:51;;;;;;;1.23;1.13;;;;;16.80;96971.00;;;;5092975;28;20191;-59
2021/10/03 03:01:18;;;;;;;1.40;1.30;;;;;16.80;96970.00;;;;5092877;28;20252;-59
2021/10/03 03:03:45;;;;;;;1.50;1.40;;;;;16.80;96965.00;;;;5092802;28;20547;-59
2021/10/03 03:06:13;;;;;;;1.20;1.17;;;;;16.80;96957.00;;;;5095687;28;20216;-59
2021/10/03 03:08:39;;;;;;;1.20;1.10;;;;;16.80;96955.00;;;;5096745;28;20203;-59
2021/10/03 03:11:07;;;;;;;1.37;1.20;;;;;16.80;96946.00;;;;5096698;28;20196;-59
2021/10/03 03:13:34;;;;;;;1.40;1.30;;;;;16.80;96953.00;;;;5096657;28;20203;-59
2021/10/03 03:16:01;;;;;;;1.20;1.20;;;;;16.80;96948.00;;;;5096618;28;20654;-59
2021/10/03 03:18:27;;;;;;;1.30;1.20;;;;;16.80;96949.00;;;;5096633;28;20312;-59
2021/10/03 03:20:54;;;;;;;1.50;1.40;;;;;16.80;96946.00;;;;5096753;28;20195;-59
2021/10/03 03:23:21;;;;;;;1.43;1.33;;;;;16.80;96949.00;;;;5095755;28;20226;-59
2021/10/03 03:25:47;;;;;;;1.30;1.20;;;;;16.80;96948.00;;;;5096829;28;20653;-59
2021/10/03 03:28:14;;;;;;;1.40;1.30;;;;;16.80;96947.00;;;;5096435;28;20256;-59
2021/10/03 03:30:40;;;;;;;1.47;1.27;;;;;16.80;96945.00;;;;5096367;28;20680;-59
2021/10/03 03:33:07;;;;;;;1.40;1.30;;;;;16.80;96941.00;;;;5096530;28;20248;-59
2021/10/03 03:35:34;;;;;;;1.30;1.20;;;;;16.80;96947.00;;;;5095075;28;20182;-59
2021/10/03 03:38:00;;;;;;;1.00;1.00;;;;;16.80;96938.00;;;;5096285;28;20176;-59
2021/10/03 03:40:27;;;;;;;1.40;1.30;;;;;16.80;96941.00;;;;5096470;28;20180;-59
2021/10/03 03:42:53;;;;;;;1.40;1.30;;;;;16.80;96931.00;;;;5096172;28;20236;-57
2021/10/03 03:45:20;;;;;;;1.20;1.10;;;;;16.80;96936.00;;;;5096372;28;20221;-59
2021/10/03 03:47:46;;;;;;;1.30;1.20;;;;;16.80;96941.00;;;;5095934;28;20622;-59
2021/10/03 03:50:15;;;;;;;1.40;1.30;;;;;16.80;96946.00;;;;5095934;28;20748;-58
2021/10/03 03:52:43;;;;;;;1.33;1.23;;;;;16.80;96944.00;;;;5096177;28;20226;-59
2021/10/03 03:55:11;;;;;;;1.03;1.03;;;;;16.80;96940.00;;;;5095859;28;20331;-59
2021/10/03 03:57:38;;;;;;;1.30;1.20;;;;;16.80;96941.00;;;;5095994;28;20202;-59
2021/10/03 04:00:07;;;;;;;1.40;1.30;;;;;16.80;96929.00;;;;5096337;28;20184;-59
2021/10/03 04:02:34;;;;;;;1.20;1.10;;;;;16.80;96932.00;;;;5096013;28;20615;-59
2021/10/03 04:05:00;;;;;;;1.40;1.30;;;;;16.80;96924.00;;;;5095602;28;20221;-58
2021/10/03 04:07:27;;;;;;;1.40;1.30;;;;;16.80;96914.00;;;;5095572;28;20569;-59
2021/10/03 04:09:53;;;;;;;1.47;1.37;;;;;16.80;96917.00;;;;5095608;28;20255;-59
2021/10/03 04:12:20;;;;;;;1.20;1.10;;;;;16.80;96918.00;;;;5095719;28;20198;-59
2021/10/03 04:14:46;;;;;;;1.40;1.30;;;;;16.80;96920.00;;;;5095573;28;20258;-59
2021/10/03 04:17:13;;;;;;;1.50;1.40;;;;;16.80;96905.00;;;;5095385;28;20195;-59
2021/10/03 04:19:40;;;;;;;1.30;1.20;;;;;16.80;96901.00;;;;5095437;28;20234;-59
2021/10/03 04:22:06;;;;;;;1.50;1.40;;;;;16.80;96901.00;;;;5095592;28;20261;-58
2021/10/03 04:24:33;;;;;;;1.60;1.50;;;;;16.80;96893.00;;;;5095299;28;20555;-59
2021/10/03 04:26:59;;;;;;;1.40;1.30;;;;;16.80;96888.00;;;;5095223;28;20202;-59
2021/10/03 04:29:26;;;;;;;1.40;1.30;;;;;16.80;96890.00;;;;5093960;28;20656;-59
2021/10/03 04:31:53;;;;;;;1.40;1.30;;;;;16.80;96890.00;;;;5095477;28;20198;-59
2021/10/03 04:34:19;;;;;;;1.30;1.20;;;;;16.80;96890.00;;;;5095190;28;20265;-59
2021/10/03 04:36:46;;;;;;;1.43;1.33;;;;;16.80;96892.00;;;;5095331;28;20207;-59
2021/10/03 04:39:12;;;;;;;1.43;1.33;;;;;16.80;96899.00;;;;5095327;28;20240;-59
2021/10/03 04:41:39;;;;;;;1.30;1.20;;;;;16.80;96889.00;;;;5095537;28;20194;-60
2021/10/03 04:44:05;;;;;;;1.50;1.40;;;;;16.80;96892.00;;;;5094895;28;20204;-59
2021/10/03 04:46:31;;;;;;;1.40;1.30;;;;;16.80;96891.00;;;;5095087;28;20188;-59
2021/10/03 04:48:58;;;;;;;1.27;1.17;;;;;16.80;96883.00;;;;5095412;28;20186;-59
2021/10/03 04:51:25;;;;;;;1.30;1.20;;;;;16.80;96883.00;;;;5094841;28;20182;-59
2021/10/03 04:53:51;;;;;;;1.10;1.00;;;;;16.80;96884.00;;;;5095017;28;20218;-59
2021/10/03 04:56:18;;;;;;;1.30;1.20;;;;;16.80;96877.00;;;;5094697;28;20184;-59
2021/10/03 04:58:44;;;;;;;1.90;1.20;;;;;16.80;96885.00;;;;5094678;28;20186;-59
2021/10/03 05:01:11;;;;;;;1.40;1.30;;;;;16.80;96881.00;;;;5095176;28;20233;-58
2021/10/03 05:03:37;;;;;;;1.20;1.10;;;;;16.80;96882.00;;;;5094505;28;20299;-59
2021/10/03 05:06:07;;;;;;;1.40;1.30;;;;;16.80;96887.00;;;;5094511;28;20243;-59
2021/10/03 05:08:35;;;;;;;1.40;1.30;;;;;16.80;96879.00;;;;5094378;28;20204;-59
2021/10/03 05:11:02;;;;;;;1.40;1.30;;;;;16.80;96874.00;;;;5094498;28;20206;-59
2021/10/03 05:13:29;;;;;;;1.30;1.20;;;;;16.90;96879.00;;;;5094301;28;20699;-59
2021/10/03 05:15:56;;;;;;;0.90;0.90;;;;;16.90;96876.00;;;;5094903;28;20188;-59
2021/10/03 05:18:23;;;;;;;1.37;1.27;;;;;16.90;96880.00;;;;5094256;28;20717;-58
2021/10/03 05:20:50;;;;;;;1.10;1.00;;;;;16.90;96887.00;;;;5094211;28;20184;-59
2021/10/03 05:23:18;;;;;;;1.10;1.00;;;;;16.90;96885.00;;;;5094049;28;20298;-59
2021/10/03 05:25:44;;;;;;;1.10;1.10;;;;;16.90;96879.00;;;;5094147;28;20605;-59
2021/10/03 05:28:11;;;;;;;1.30;1.20;;;;;16.90;96884.00;;;;5093332;28;20263;-59
2021/10/03 05:30:38;;;;;;;1.30;1.20;;;;;16.90;96883.00;;;;5094289;28;20191;-59
2021/10/03 05:33:04;;;;;;;1.40;1.30;;;;;16.90;96882.00;;;;5093997;28;20311;-59
2021/10/03 05:35:31;;;;;;;1.50;1.40;;;;;17.00;96895.00;;;;5093989;28;20195;-59
2021/10/03 05:37:57;;;;;;;1.20;1.10;;;;;17.00;96895.00;;;;5093907;28;20186;-59
2021/10/03 05:40:24;;;;;;;1.47;1.37;;;;;17.10;96896.00;;;;5093879;28;20186;-59
2021/10/03 05:42:50;;;;;;;1.17;1.13;;;;;17.10;96896.00;;;;5093819;28;20195;-58
2021/10/03 05:45:17;;;;;;;1.50;1.40;;;;;17.20;96899.00;;;;5093703;28;20206;-58
2021/10/03 05:47:43;;;;;;;1.40;1.30;;;;;17.20;96894.00;;;;5093925;28;20261;-59
2021/10/03 05:50:10;;;;;;;1.10;1.10;;;;;17.30;96897.00;;;;5093706;28;20190;-58
2021/10/03 05:52:38;;;;;;;1.30;1.20;;;;;17.30;96893.00;;;;5093635;28;20192;-59
2021/10/03 05:55:05;;;;;;;1.40;1.30;;;;;17.30;96895.00;;;;5093613;28;20562;-59
2021/10/03 05:57:31;;;;;;;1.50;1.40;;;;;17.40;96897.00;;;;5093639;28;20195;-59
2021/10/03 05:59:58;;;;;;;1.10;1.10;;;;;17.40;96897.00;;;;5094107;28;20240;-58
2021/10/03 06:02:24;;;;;;;1.20;1.20;;;;;17.40;96897.00;;;;5093481;28;20191;-58
2021/10/03 06:04:51;;;;;;;1.30;1.20;;;;;17.40;96898.00;;;;5093509;28;20623;-59
2021/10/03 06:07:17;;;;;;;1.50;1.13;;;;;17.40;96887.00;;;;5093338;28;20204;-59
2021/10/03 06:09:44;;;;;;;1.37;1.27;;;;;17.40;96894.00;;;;5093965;28;20192;-59
2021/10/03 06:12:11;;;;;;;1.50;1.40;;;;;17.40;96897.00;;;;5092213;28;20195;-59
2021/10/03 06:14:38;;;;;;;1.10;1.10;;;;;17.40;96905.00;;;;5093303;28;20212;-59
2021/10/03 06:17:04;;;;;;;1.37;1.27;;;;;17.40;96908.00;;;;5093583;28;20184;-59
2021/10/03 06:19:31;;;;;;;1.33;1.23;;;;;17.40;96915.00;;;;5093326;28;20219;-59
2021/10/03 06:22:00;;;;;;;1.30;1.20;;;;;17.40;96914.00;;;;5093236;28;20649;-59
2021/10/03 06:24:26;;;;;;;1.33;1.23;;;;;17.50;96917.00;;;;5093316;28;20559;-59
2021/10/03 06:26:53;;;;;;;1.00;1.00;;;;;17.40;96912.00;;;;5093185;28;20187;-59
2021/10/03 06:29:19;;;;;;;1.13;1.03;;;;;17.40;96918.00;;;;5093483;28;20612;-58
2021/10/03 06:31:46;;;;;;;1.07;1.07;;;;;17.40;96919.00;;;;5093485;28;20644;-59
2021/10/03 06:34:12;;;;;;;1.10;1.10;;;;;17.50;96920.00;;;;5093305;28;20226;-59
2021/10/03 06:36:39;;;;;;;1.27;1.17;;;;;17.50;96917.00;;;;5093165;28;20622;-58
2021/10/03 06:39:05;;;;;;;1.40;1.30;;;;;17.50;96927.00;;;;5094362;28;20299;-58
2021/10/03 06:41:32;;;;;;;1.33;1.23;;;;;17.50;96930.00;;;;5096076;28;20237;-56
2021/10/03 06:43:59;;;;;;;1.10;1.10;;;;;17.50;96934.00;;;;5097186;28;20207;-55
2021/10/03 06:46:25;;;;;;;1.33;1.23;;;;;17.50;96929.00;;;;5097189;28;20199;-55
2021/10/03 06:48:52;;;;;;;1.20;1.10;;;;;17.60;96929.00;;;;5097573;28;20207;-60
2021/10/03 06:51:18;;;;;;;1.40;1.30;;;;;17.60;96935.00;;;;5097109;28;20184;-58
2021/10/03 06:53:45;;;;;;;1.20;1.10;;;;;17.60;96944.00;;;;5097014;28;20677;-58
2021/10/03 06:56:12;;;;;;;1.97;1.40;;;;;17.60;96949.00;;;;5097089;28;20194;-58
2021/10/03 06:58:38;;;;;;;1.17;1.17;;;;;17.70;96952.00;;;;5097003;28;20311;-58
2021/10/03 07:01:05;;;;;;;2.00;1.10;;;;;17.70;96955.00;;;;5095723;28;20255;-58
2021/10/03 07:03:32;;;;;;;1.20;1.20;;;;;17.70;96953.00;;;;5097168;28;20612;-58
2021/10/03 07:05:58;;;;;;;1.40;1.30;;;;;17.70;96954.00;;;;5096864;28;20195;-58
2021/10/03 07:08:25;;;;;;;1.27;1.17;;;;;17.60;96960.00;;;;5096733;28;20203;-56
2021/10/03 07:10:51;;;;;;;1.33;1.13;;;;;17.60;96967.00;;;;5097049;28;20234;-56
2021/10/03 07:13:18;;;;;;;1.53;1.27;;;;;17.50;96964.00;;;;5096678;28;20260;-56
2021/10/03 07:15:44;;;;;;;1.10;1.10;;;;;17.50;96967.00;;;;5096664;28;20191;-57
2021/10/03 07:18:12;;;;;;;1.43;1.33;;;;;17.50;96979.00;;;;5096901;28;20187;-57
2021/10/03 07:20:39;;;;;;;1.53;1.33;;;;;17.40;96984.00;;;;5097105;28;20191;-56
2021/10/03 07:23:06;;;;;;;1.40;1.30;;;;;17.40;96981.00;;;;5096324;28;20261;-58
2021/10/03 07:25:33;;;;;;;1.20;1.20;;;;;17.40;96975.00;;;;5096753;28;20186;-58
2021/10/03 07:27:59;;;;;;;1.40;1.30;;;;;17.40;96973.00;;;;5096304;28;20200;-57
2021/10/03 07:30:26;;;;;;;2.13;1.40;;;;;17.40;96979.00;;;;5096628;28;20195;-57
2021/10/03 07:32:52;;;;;;;1.37;1.30;;;;;17.30;96970.00;;;;5096644;28;20187;-57
2021/10/03 07:35:19;;;;;;;1.20;1.20;;;;;17.30;96978.00;;;;5096295;28;20193;-56
2021/10/03 07:37:46;;;;;;;1.20;1.10;;;;;17.30;96974.00;;;;5096523;28;20187;-58
2021/10/03 07:40:12;;;;;;;1.93;1.20;;;;;17.30;96985.00;;;;5096213;28;20198;-58
2021/10/03 07:42:42;;;;;;;1.33;1.23;;;;;17.30;96987.00;;;;5096321;28;20654;-54
2021/10/03 07:45:09;;;;;;;1.50;1.40;;;;;17.30;96979.00;;;;5094889;28;20253;-57
2021/10/03 07:47:35;;;;;;;1.27;1.20;;;;;17.30;96981.00;;;;5096120;28;20268;-56
2021/10/03 07:50:03;;;;;;;2.03;1.30;;;;;17.30;96978.00;;;;5096183;28;20243;-59
2021/10/03 07:52:29;;;;;;;1.40;1.30;;;;;17.30;96975.00;;;;5095495;28;20191;-56
2021/10/03 07:54:56;;;;;;;1.40;1.30;;;;;17.40;96983.00;;;;5095792;28;20257;-56
2021/10/03 07:57:22;;;;;;;1.40;1.30;;;;;17.40;96982.00;;;;5096232;28;20199;-58
2021/10/03 07:59:49;;;;;;;1.40;1.30;;;;;17.40;96990.00;;;;5096339;28;20580;-56
2021/10/03 08:02:15;;;;;;;1.00;1.00;;;;;17.50;96980.00;;;;5095743;28;20194;-55
2021/10/03 08:04:42;;;;;;;1.50;1.30;;;;;17.50;96991.00;;;;5095553;28;20239;-52
2021/10/03 08:07:09;;;;;;;1.40;1.30;;;;;17.50;96990.00;;;;5095558;28;20184;-55
2021/10/03 08:09:35;;;;;;;1.40;1.30;;;;;17.50;96987.00;;;;5095494;28;20226;-57
2021/10/03 08:12:02;;;;;;;1.50;1.40;;;;;17.50;96997.00;;;;5095485;28;20188;-58
2021/10/03 08:14:29;;;;;;;1.40;1.30;;;;;17.50;96998.00;;;;5095416;28;20727;-58
2021/10/03 08:16:55;;;;;;;1.30;1.10;;;;;17.50;96998.00;;;;5095422;28;20191;-58
2021/10/03 08:19:22;;;;;;;1.60;1.50;;;;;17.50;96998.00;;;;5095434;28;20226;-57
2021/10/03 08:21:48;;;;;;;1.10;1.10;;;;;17.50;96998.00;;;;5095364;28;20191;-54
2021/10/03 08:24:15;;;;;;;1.37;1.27;;;;;17.40;97006.00;;;;5095377;28;20198;-58
2021/10/03 08:26:46;;;;;;;1.40;1.30;;;;;17.40;96989.00;;;;5095259;28;20187;-58
2021/10/03 08:29:13;;;;;;;1.23;1.20;;;;;17.40;97011.00;;;;5095394;28;20200;-57
2021/10/03 08:31:39;;;;;;;1.37;1.27;;;;;17.40;97014.00;;;;5095417;28;20193;-58
2021/10/03 08:34:10;;;;;;;1.63;1.40;;;;;17.40;97010.00;;;;5095607;28;20706;-55
2021/10/03 08:36:37;;;;;;;1.43;1.33;;;;;17.40;97004.00;;;;5094995;28;20237;-56
2021/10/03 08:39:03;;;;;;;1.40;1.30;;;;;17.40;97006.00;;;;5094999;28;20191;-55
2021/10/03 08:41:31;;;;;;;1.30;1.20;;;;;17.40;97008.00;;;;5095189;28;20184;-58
2021/10/03 08:43:57;;;;;;;1.77;1.10;;;;;17.30;97001.00;;;;5094761;28;20256;-56
2021/10/03 08:46:27;;;;;;;1.73;1.30;;;;;17.30;97001.00;;;;5095044;28;20702;-57
2021/10/03 08:48:55;;;;;;;1.73;1.50;;;;;17.30;97016.00;;;;5094977;28;20223;-58
2021/10/03 08:51:22;;;;;;;1.10;1.10;;;;;17.30;97011.00;;;;5094693;28;20606;-58
2021/10/03 08:53:49;;;;;;;1.50;1.40;;;;;17.30;97010.00;;;;5094851;28;20605;-55
2021/10/03 08:56:16;;;;;;;2.33;1.60;;;;;17.30;97013.00;;;;5094906;28;20778;-53
2021/10/03 08:58:43;;;;;;;1.70;1.60;;;;;17.20;97013.00;;;;5094523;28;20594;-54
2021/10/03 09:01:13;;;;;;;1.90;1.80;;;;;17.20;97012.00;;;;5094546;28;20184;-57
2021/10/03 09:03:41;;;;;;;1.80;1.70;;;;;17.20;97007.00;;;;5093318;28;20229;-57
2021/10/03 09:06:08;;;;;;;1.83;1.73;;;;;17.30;97012.00;;;;5094452;28;20196;-58
2021/10/03 09:08:40;;;;;;;2.00;1.90;;;;;17.30;97010.00;;;;5094807;28;20208;-57
2021/10/03 09:11:11;;;;;;;3.77;2.27;;;;;17.30;97005.00;;;;5094639;28;20184;-56
2021/10/03 09:13:59;;;;;;;2.23;1.80;;;;;17.30;97004.00;;;;5094324;28;20210;-58
2021/10/03 09:16:37;;;;;;;2.13;2.00;;;;;17.30;97017.00;;;;5094262;28;20234;-58
2021/10/03 09:19:11;;;;;;;2.20;1.80;;;;;17.30;97017.00;;;;5092946;28;20218;-58
2021/10/03 09:21:40;;;;;;;2.20;2.00;;;;;17.30;97016.00;;;;5093988;28;20191;-58
2021/10/03 09:24:10;;;;;;;2.40;1.97;;;;;17.30;97010.00;;;;5093185;28;20218;-57
2021/10/03 09:26:39;;;;;;;2.10;2.00;;;;;17.30;97012.00;;;;5094328;28;20204;-58
2021/10/03 09:29:28;;;;;;;1.93;1.63;;;;;17.30;97017.00;;;;5094083;28;20257;-57
2021/10/03 09:32:12;;;;;;;2.10;2.00;;;;;17.30;97018.00;;;;5094382;28;20350;-56
2021/10/03 09:34:45;;;;;;;2.03;1.93;;;;;17.30;97013.00;;;;5093910;28;20233;-58
2021/10/03 09:37:17;;;;;;;1.90;1.80;;;;;17.30;97014.00;;;;5093972;28;20171;-58
2021/10/03 09:39:44;;;;;;;1.87;1.77;;;;;17.30;97007.00;;;;5093826;28;20180;-58
2021/10/03 09:42:15;;;;;;;1.80;1.70;;;;;17.30;97011.00;;;;5093784;28;20180;-55
2021/10/03 09:45:04;;;;;;;1.73;1.63;;;;;17.30;97014.00;;;;5093614;28;20211;-57
2021/10/03 09:47:31;;;;;;;1.80;1.40;;;;;17.30;97008.00;;;;5093981;28;20199;-56
2021/10/03 09:49:58;;;;;;;1.87;1.77;;;;;17.30;97019.00;;;;5092645;28;20200;-55
2021/10/03 09:52:24;;;;;;;1.80;1.70;;;;;17.30;97029.00;;;;5093614;28;20272;-53
2021/10/03 09:54:52;;;;;;;1.80;1.70;;;;;17.30;97022.00;;;;5093530;28;20269;-58
2021/10/03 09:57:18;;;;;;;2.20;2.00;;;;;17.30;97025.00;;;;5093569;28;20186;-56
2021/10/03 09:59:45;;;;;;;1.60;1.50;;;;;17.40;97026.00;;;;5093890;28;20188;-57
2021/10/03 10:02:12;;;;;;;2.00;1.80;;;;;17.50;97043.00;;;;5092400;28;20190;-57
2021/10/03 10:04:39;;;;;;;1.80;1.70;;;;;17.60;97052.00;;;;5093512;28;20690;-56
2021/10/03 10:07:05;;;;;;;1.70;1.60;;;;;17.60;97046.00;;;;5093424;28;20531;-57
2021/10/03 10:09:34;;;;;;;1.83;1.73;;;;;17.60;97036.00;;;;5093133;28;20208;-56
2021/10/03 10:12:07;;;;;;;2.10;2.00;;;;;17.60;97042.00;;;;5093327;28;20196;-56
2021/10/03 10:14:38;;;;;;;1.50;1.40;;;;;17.60;97031.00;;;;5093277;28;20753;-58
2021/10/03 10:17:42;;;;;;;2.17;1.60;;;;;17.70;97028.00;;;;5093248;28;20184;-55
2021/10/03 10:20:17;;;;;;;2.33;1.70;;;;;17.70;97025.00;;;;5093156;28;20202;-55
2021/10/03 10:22:59;;;;;;;1.70;1.60;;;;;17.70;97022.00;;;;5093001;28;20198;-54
2021/10/03 10:25:49;;;;;;;1.60;1.50;;;;;17.60;97026.00;;;;5093356;28;20184;-58
2021/10/03 10:28:33;;;;;;;4.87;1.70;;;;;17.60;97019.00;;;;5093251;28;20192;-57
2021/10/03 10:31:17;;;;;;;70.13;31.73;;;;;17.50;97021.00;;;;5093363;28;20230;-56
2021/10/03 10:33:49;;;;;;;90.47;35.43;;;;;17.50;97016.00;;;;5093750;28;20557;-53
2021/10/03 10:36:20;;;;;;;81.50;34.33;;;;;17.50;97011.00;;;;5093244;28;20179;-57
2021/10/03 10:39:09;;;;;;;73.90;31.73;;;;;17.50;97001.00;;;;5092969;28;20659;-57
2021/10/03 10:41:38;;;;;;;108.03;36.07;;;;;17.50;96990.00;;;;5093250;28;20229;-57
2021/10/03 10:44:28;;;;;;;118.27;37.33;;;;;17.50;96984.00;;;;5093057;28;20230;-57
2021/10/03 10:46:59;;;;;;;163.50;49.20;;;;;17.50;96983.00;;;;5093175;28;20176;-59
2021/10/03 10:49:38;;;;;;;144.20;44.53;;;;;17.60;96977.00;;;;5093069;28;20196;-59
2021/10/03 10:52:19;;;;;;;153.67;45.27;;;;;17.60;96975.00;;;;5093020;28;20210;-57
2021/10/03 10:55:02;;;;;;;136.83;42.63;;;;;17.60;96972.00;;;;5091652;28;20199;-57
2021/10/03 10:57:29;;;;;;;125.03;40.20;;;;;17.60;96961.00;;;;5091920;28;20545;-58
2021/10/03 11:00:28;;;;;;;112.60;37.17;;;;;17.60;96964.00;;;;5093028;28;20186;-57
2021/10/03 11:03:00;;;;;;;94.43;33.77;;;;;17.50;96965.00;;;;5093045;28;20179;-55
2021/10/03 11:05:43;;;;;;;99.70;34.00;;;;;17.50;96968.00;;;;5092816;28;20184;-55
2021/10/03 11:08:17;;;;;;;92.50;29.43;;;;;17.50;96967.00;;;;5093282;28;20199;-57
2021/10/03 11:11:03;;;;;;;96.23;32.40;;;;;17.50;96960.00;;;;5093272;28;20178;-58
2021/10/03 11:13:50;;;;;;;87.43;34.97;;;;;17.50;96961.00;;;;5092728;28;20211;-58
2021/10/03 11:16:30;;;;;;;97.23;34.00;;;;;17.60;96970.00;;;;5092651;28;20172;-58
2021/10/03 11:19:16;;;;;;;87.03;32.00;;;;;17.60;96964.00;;;;5092898;28;20166;-56
2021/10/03 11:21:46;;;;;;;77.70;32.33;;;;;17.70;96963.00;;;;5092700;28;20196;-54
2021/10/03 11:24:23;;;;;;;90.57;31.07;;;;;17.70;96962.00;;;;5092792;28;20241;-57
2021/10/03 11:27:02;;;;;;;84.87;31.13;;;;;17.70;96971.00;;;;5095261;28;20179;-57
2021/10/03 11:29:35;;;;;;;78.63;30.20;;;;;17.70;96974.00;;;;5096222;28;20199;-55
2021/10/03 11:32:06;;;;;;;70.73;29.33;;;;;17.80;96976.00;;;;5096242;28;20176;-57
2021/10/03 11:34:35;;;;;;;80.80;29.70;;;;;17.80;96968.00;;;;5096203;28;20208;-58
2021/10/03 11:37:05;;;;;;;77.47;29.03;;;;;17.70;96974.00;;;;5096086;28;20550;-58
2021/10/03 11:39:34;;;;;;;72.20;26.70;;;;;17.80;96978.00;;;;5096099;28;20188;-57
2021/10/03 11:42:08;;;;;;;76.63;28.80;;;;;17.70;96981.00;;;;5096025;28;20186;-55
2021/10/03 11:44:37;;;;;;;81.70;27.63;;;;;17.70;96990.00;;;;5096062;28;20215;-57
2021/10/03 11:47:15;;;;;;;66.03;26.20;;;;;17.70;96998.00;;;;5096237;28;20241;-57
2021/10/03 11:49:46;;;;;;;62.87;25.70;;;;;17.70;96993.00;;;;5096357;28;20192;-57
2021/10/03 11:52:27;;;;;;;64.57;25.50;;;;;17.70;96991.00;;;;5095999;28;20639;-58
2021/10/03 11:55:00;;;;;;;68.40;26.23;;;;;17.70;96983.00;;;;5095681;28;20215;-56
2021/10/03 11:57:27;;;;;;;67.87;24.53;;;;;17.70;96989.00;;;;5095977;28;20224;-57
2021/10/03 12:00:09;;;;;;;61.50;24.10;;;;;17.70;97001.00;;;;5095661;28;20525;-57
2021/10/03 12:02:42;;;;;;;58.50;23.47;;;;;17.70;97011.00;;;;5095647;28;20200;-58
2021/10/03 12:05:12;;;;;;;59.97;22.23;;;;;17.70;97011.00;;;;5096127;28;20677;-57
2021/10/03 12:07:38;;;;;;;52.17;22.43;;;;;17.60;97016.00;;;;5095571;28;20191;-58
2021/10/03 12:10:08;;;;;;;49.83;21.17;;;;;17.60;97017.00;;;;5095452;28;20616;-58
2021/10/03 12:12:45;;;;;;;50.80;21.53;;;;;17.60;97016.00;;;;5095626;28;20184;-57
2021/10/03 12:15:42;;;;;;;51.87;20.57;;;;;17.60;97026.00;;;;5095379;28;20207;-55
2021/10/03 12:18:12;;;;;;;49.57;20.73;;;;;17.60;97032.00;;;;5079124;28;20200;-57
2021/10/03 12:20:48;;;;;;;48.10;20.43;;;;;17.60;97042.00;;;;5095305;28;20176;-57
2021/10/03 12:23:18;;;;;;;45.23;19.57;;;;;17.60;97039.00;;;;5095217;28;20789;-58